sensor_id;sensor_type;location;lat;lon;timestamp;temperature;humidity
15288;DHT22;7745;48.708;9.026;2023-01-19T00:00:55;-2.40;99.90
15288;DHT22;7745;48.708;9.026;2023-01-19T00:03:22;-2.50;99.90
15288;DHT22;7745;48.708;9.026;2023-01-19T00:05:49;-2.50;99.90
15288;DHT22;7745;48.708;9.026;2023-01-19T00:08:18;-2.50;99.90
15288;DHT22;7745;48.708;9.026;2023-01-19T00:10:48;-2.60;99.90
15288;DHT22;7745;48.708;9.026;2023-01-19T00:13:16;-2.60;99.90
15288;DHT22;7745;48.708;9.026;2023-01-19T00:15:43;-2.60;99.90
15288;DHT22;7745;48.708;9.026;2023-01-19T00:18:10;-2.70;99.90
15288;DHT22;7745;48.708;9.026;2023-01-19T00:20:36;-2.60;99.90
15288;DHT22;7745;48.708;9.026;2023-01-19T00:23:03;-2.60;99.90
15288;DHT22;7745;48.708;9.026;2023-01-19T00:25:34;-2.50;99.90
15288;DHT22;7745;48.708;9.026;2023-01-19T00:28:07;-2.60;99.90
15288;DHT22;7745;48.708;9.026;2023-01-19T00:30:34;-2.70;99.90
15288;DHT22;7745;48.708;9.026;2023-01-19T00:33:00;-2.70;99.90
15288;DHT22;7745;48.708;9.026;2023-01-19T00:35:27;-2.70;99.90
15288;DHT22;7745;48.708;9.026;2023-01-19T00:37:55;-2.70;99.90
15288;DHT22;7745;48.708;9.026;2023-01-19T00:40:21;-2.70;99.90
15288;DHT22;7745;48.708;9.026;2023-01-19T00:42:50;-2.70;99.90
15288;DHT22;7745;48.708;9.026;2023-01-19T00:45:18;-2.70;99.90
15288;DHT22;7745;48.708;9.026;2023-01-19T00:47:46;-2.70;99.90
15288;DHT22;7745;48.708;9.026;2023-01-19T00:50:15;-2.70;99.90
15288;DHT22;7745;48.708;9.026;2023-01-19T00:52:43;-2.50;99.90
15288;DHT22;7745;48.708;9.026;2023-01-19T00:55:12;-2.70;99.90
15288;DHT22;7745;48.708;9.026;2023-01-19T00:57:39;-2.70;99.90
15288;DHT22;7745;48.708;9.026;2023-01-19T01:00:10;-2.80;99.90
15288;DHT22;7745;48.708;9.026;2023-01-19T01:02:39;-2.90;99.90
15288;DHT22;7745;48.708;9.026;2023-01-19T01:05:07;-2.90;99.90
15288;DHT22;7745;48.708;9.026;2023-01-19T01:07:34;-2.90;99.90
15288;DHT22;7745;48.708;9.026;2023-01-19T01:10:06;-2.90;99.90
15288;DHT22;7745;48.708;9.026;2023-01-19T01:12:33;-2.90;99.90
15288;DHT22;7745;48.708;9.026;2023-01-19T01:15:00;-3.00;99.90
15288;DHT22;7745;48.708;9.026;2023-01-19T01:17:28;-3.00;99.90
15288;DHT22;7745;48.708;9.026;2023-01-19T01:19:55;-2.90;99.90
15288;DHT22;7745;48.708;9.026;2023-01-19T01:22:22;-2.90;99.90
15288;DHT22;7745;48.708;9.026;2023-01-19T01:24:48;-2.90;99.90
15288;DHT22;7745;48.708;9.026;2023-01-19T01:27:15;-2.90;99.90
15288;DHT22;7745;48.708;9.026;2023-01-19T01:29:42;-2.90;99.90
15288;DHT22;7745;48.708;9.026;2023-01-19T01:32:11;-2.90;99.90
15288;DHT22;7745;48.708;9.026;2023-01-19T01:34:39;-2.90;99.90
15288;DHT22;7745;48.708;9.026;2023-01-19T01:37:06;-2.80;99.90
15288;DHT22;7745;48.708;9.026;2023-01-19T01:39:33;-2.80;99.90
15288;DHT22;7745;48.708;9.026;2023-01-19T01:42:00;-2.80;99.90
15288;DHT22;7745;48.708;9.026;2023-01-19T01:44:57;-2.90;99.90
15288;DHT22;7745;48.708;9.026;2023-01-19T01:47:28;-2.90;99.90
15288;DHT22;7745;48.708;9.026;2023-01-19T01:50:04;-3.00;99.90
15288;DHT22;7745;48.708;9.026;2023-01-19T01:52:35;-3.10;99.90
15288;DHT22;7745;48.708;9.026;2023-01-19T01:55:04;-3.10;99.90
15288;DHT22;7745;48.708;9.026;2023-01-19T01:57:35;-3.20;99.90
15288;DHT22;7745;48.708;9.026;2023-01-19T02:00:04;-3.20;99.90
15288;DHT22;7745;48.708;9.026;2023-01-19T02:02:35;-3.20;99.90
15288;DHT22;7745;48.708;9.026;2023-01-19T02:05:20;-3.20;99.90
15288;DHT22;7745;48.708;9.026;2023-01-19T02:07:53;-3.20;99.90
15288;DHT22;7745;48.708;9.026;2023-01-19T02:10:40;-3.20;99.90
15288;DHT22;7745;48.708;9.026;2023-01-19T02:13:25;-3.10;99.90
15288;DHT22;7745;48.708;9.026;2023-01-19T02:15:54;-3.10;99.90
15288;DHT22;7745;48.708;9.026;2023-01-19T02:18:23;-3.10;99.90
15288;DHT22;7745;48.708;9.026;2023-01-19T02:21:00;-3.10;99.90
15288;DHT22;7745;48.708;9.026;2023-01-19T02:23:37;-3.10;99.90
15288;DHT22;7745;48.708;9.026;2023-01-19T02:26:05;-3.10;99.90
15288;DHT22;7745;48.708;9.026;2023-01-19T02:28:36;-3.10;99.90
15288;DHT22;7745;48.708;9.026;2023-01-19T02:31:05;-3.10;99.90
15288;DHT22;7745;48.708;9.026;2023-01-19T02:33:32;-3.20;99.90
15288;DHT22;7745;48.708;9.026;2023-01-19T02:35:59;-3.20;99.90
15288;DHT22;7745;48.708;9.026;2023-01-19T02:38:27;-3.20;99.90
15288;DHT22;7745;48.708;9.026;2023-01-19T02:40:59;-3.20;99.90
15288;DHT22;7745;48.708;9.026;2023-01-19T02:43:27;-3.20;99.90
15288;DHT22;7745;48.708;9.026;2023-01-19T02:45:55;-3.20;99.90
15288;DHT22;7745;48.708;9.026;2023-01-19T02:48:22;-3.20;99.90
15288;DHT22;7745;48.708;9.026;2023-01-19T02:50:51;-3.20;99.90
15288;DHT22;7745;48.708;9.026;2023-01-19T02:53:47;-3.20;99.90
15288;DHT22;7745;48.708;9.026;2023-01-19T02:56:44;-3.30;99.90
15288;DHT22;7745;48.708;9.026;2023-01-19T02:59:21;-3.30;99.90
15288;DHT22;7745;48.708;9.026;2023-01-19T03:02:07;-3.30;99.90
15288;DHT22;7745;48.708;9.026;2023-01-19T03:04:47;-3.40;99.90
15288;DHT22;7745;48.708;9.026;2023-01-19T03:07:23;-3.40;99.90
15288;DHT22;7745;48.708;9.026;2023-01-19T03:09:59;-3.50;99.90
15288;DHT22;7745;48.708;9.026;2023-01-19T03:12:36;-3.50;99.90
15288;DHT22;7745;48.708;9.026;2023-01-19T03:15:10;-3.50;99.90
15288;DHT22;7745;48.708;9.026;2023-01-19T03:17:40;-3.30;99.90
15288;DHT22;7745;48.708;9.026;2023-01-19T03:20:11;-3.60;99.90
15288;DHT22;7745;48.708;9.026;2023-01-19T03:22:39;-3.60;99.90
15288;DHT22;7745;48.708;9.026;2023-01-19T03:25:08;-3.60;99.90
15288;DHT22;7745;48.708;9.026;2023-01-19T03:27:37;-3.60;99.90
15288;DHT22;7745;48.708;9.026;2023-01-19T03:30:08;-3.60;99.90
15288;DHT22;7745;48.708;9.026;2023-01-19T03:32:48;-3.60;99.90
15288;DHT22;7745;48.708;9.026;2023-01-19T03:35:20;-3.50;99.90
15288;DHT22;7745;48.708;9.026;2023-01-19T03:37:50;-3.50;99.90
15288;DHT22;7745;48.708;9.026;2023-01-19T03:40:18;-3.50;99.90
15288;DHT22;7745;48.708;9.026;2023-01-19T03:42:48;-3.40;99.90
15288;DHT22;7745;48.708;9.026;2023-01-19T03:45:16;-3.40;99.90
15288;DHT22;7745;48.708;9.026;2023-01-19T03:47:43;-3.20;99.90
15288;DHT22;7745;48.708;9.026;2023-01-19T03:50:13;-3.40;99.90
15288;DHT22;7745;48.708;9.026;2023-01-19T03:52:44;-3.40;99.90
15288;DHT22;7745;48.708;9.026;2023-01-19T03:55:11;-3.40;99.90
15288;DHT22;7745;48.708;9.026;2023-01-19T03:57:39;-3.40;99.90
15288;DHT22;7745;48.708;9.026;2023-01-19T04:00:09;-3.40;99.90
15288;DHT22;7745;48.708;9.026;2023-01-19T04:02:36;-3.40;99.90
15288;DHT22;7745;48.708;9.026;2023-01-19T04:05:04;-3.40;99.90
15288;DHT22;7745;48.708;9.026;2023-01-19T04:07:31;-3.30;99.90
15288;DHT22;7745;48.708;9.026;2023-01-19T04:09:57;-3.30;99.90
15288;DHT22;7745;48.708;9.026;2023-01-19T04:12:24;-3.30;99.90
15288;DHT22;7745;48.708;9.026;2023-01-19T04:14:51;-3.30;99.90
15288;DHT22;7745;48.708;9.026;2023-01-19T04:17:19;-3.30;99.90
15288;DHT22;7745;48.708;9.026;2023-01-19T04:19:46;-3.30;99.90
15288;DHT22;7745;48.708;9.026;2023-01-19T04:22:12;-3.30;99.90
15288;DHT22;7745;48.708;9.026;2023-01-19T04:24:39;-3.50;99.90
15288;DHT22;7745;48.708;9.026;2023-01-19T04:27:39;-3.60;99.90
15288;DHT22;7745;48.708;9.026;2023-01-19T04:30:07;-3.60;99.90
15288;DHT22;7745;48.708;9.026;2023-01-19T04:32:35;-3.60;99.90
15288;DHT22;7745;48.708;9.026;2023-01-19T04:38:26;-3.50;99.90
15288;DHT22;7745;48.708;9.026;2023-01-19T04:40:53;-3.40;99.90
15288;DHT22;7745;48.708;9.026;2023-01-19T04:43:21;-3.40;99.90
15288;DHT22;7745;48.708;9.026;2023-01-19T04:45:49;-3.30;99.90
15288;DHT22;7745;48.708;9.026;2023-01-19T04:48:17;-3.20;99.90
15288;DHT22;7745;48.708;9.026;2023-01-19T04:50:44;-3.20;99.90
15288;DHT22;7745;48.708;9.026;2023-01-19T04:53:11;-3.10;99.90
15288;DHT22;7745;48.708;9.026;2023-01-19T04:55:40;-3.10;99.90
15288;DHT22;7745;48.708;9.026;2023-01-19T04:58:07;-3.20;99.90
15288;DHT22;7745;48.708;9.026;2023-01-19T05:00:34;-3.10;99.90
15288;DHT22;7745;48.708;9.026;2023-01-19T05:03:01;-3.10;99.90
15288;DHT22;7745;48.708;9.026;2023-01-19T05:05:29;-3.20;99.90
15288;DHT22;7745;48.708;9.026;2023-01-19T05:07:57;-3.20;99.90
15288;DHT22;7745;48.708;9.026;2023-01-19T05:10:24;-3.20;99.90
15288;DHT22;7745;48.708;9.026;2023-01-19T05:12:51;-3.20;99.90
15288;DHT22;7745;48.708;9.026;2023-01-19T05:15:18;-3.20;99.90
15288;DHT22;7745;48.708;9.026;2023-01-19T05:17:44;-3.30;99.90
15288;DHT22;7745;48.708;9.026;2023-01-19T05:20:12;-3.30;99.90
15288;DHT22;7745;48.708;9.026;2023-01-19T05:22:40;-3.30;99.90
15288;DHT22;7745;48.708;9.026;2023-01-19T05:25:08;-3.20;99.90
15288;DHT22;7745;48.708;9.026;2023-01-19T05:27:35;-3.30;99.90
15288;DHT22;7745;48.708;9.026;2023-01-19T05:30:02;-3.30;99.90
15288;DHT22;7745;48.708;9.026;2023-01-19T05:32:29;-3.30;99.90
15288;DHT22;7745;48.708;9.026;2023-01-19T05:34:56;-3.30;99.90
15288;DHT22;7745;48.708;9.026;2023-01-19T05:37:23;-3.40;99.90
15288;DHT22;7745;48.708;9.026;2023-01-19T05:39:52;-3.40;99.90
15288;DHT22;7745;48.708;9.026;2023-01-19T05:42:19;-3.40;99.90
15288;DHT22;7745;48.708;9.026;2023-01-19T05:44:46;-3.50;99.90
15288;DHT22;7745;48.708;9.026;2023-01-19T05:47:13;-3.20;99.90
15288;DHT22;7745;48.708;9.026;2023-01-19T05:49:39;-3.40;99.90
15288;DHT22;7745;48.708;9.026;2023-01-19T05:52:06;-3.40;99.90
15288;DHT22;7745;48.708;9.026;2023-01-19T05:54:33;-3.40;99.90
15288;DHT22;7745;48.708;9.026;2023-01-19T05:57:01;-3.40;99.90
15288;DHT22;7745;48.708;9.026;2023-01-19T05:59:29;-3.40;99.90
15288;DHT22;7745;48.708;9.026;2023-01-19T06:01:56;-3.50;99.90
15288;DHT22;7745;48.708;9.026;2023-01-19T06:04:24;-3.50;99.90
15288;DHT22;7745;48.708;9.026;2023-01-19T06:06:51;-3.50;99.90
15288;DHT22;7745;48.708;9.026;2023-01-19T06:09:17;-3.50;99.90
15288;DHT22;7745;48.708;9.026;2023-01-19T06:11:45;-3.50;99.90
15288;DHT22;7745;48.708;9.026;2023-01-19T06:14:13;-3.50;99.90
15288;DHT22;7745;48.708;9.026;2023-01-19T06:16:40;-3.50;99.90
15288;DHT22;7745;48.708;9.026;2023-01-19T06:19:07;-3.50;99.90
15288;DHT22;7745;48.708;9.026;2023-01-19T06:21:33;-3.40;99.90
15288;DHT22;7745;48.708;9.026;2023-01-19T06:24:00;-3.50;99.90
15288;DHT22;7745;48.708;9.026;2023-01-19T06:26:28;-3.50;99.90
15288;DHT22;7745;48.708;9.026;2023-01-19T06:28:55;-3.50;99.90
15288;DHT22;7745;48.708;9.026;2023-01-19T06:31:23;-3.50;99.90
15288;DHT22;7745;48.708;9.026;2023-01-19T06:33:50;-3.40;99.90
15288;DHT22;7745;48.708;9.026;2023-01-19T06:36:16;-3.30;99.90
15288;DHT22;7745;48.708;9.026;2023-01-19T06:38:43;-3.30;99.90
15288;DHT22;7745;48.708;9.026;2023-01-19T06:41:10;-3.20;99.90
15288;DHT22;7745;48.708;9.026;2023-01-19T06:43:37;-3.10;99.90
15288;DHT22;7745;48.708;9.026;2023-01-19T06:46:04;-3.10;99.90
15288;DHT22;7745;48.708;9.026;2023-01-19T06:48:32;-3.00;99.90
15288;DHT22;7745;48.708;9.026;2023-01-19T06:50:59;-3.00;99.90
15288;DHT22;7745;48.708;9.026;2023-01-19T06:53:26;-3.00;99.90
15288;DHT22;7745;48.708;9.026;2023-01-19T06:55:57;-3.00;99.90
15288;DHT22;7745;48.708;9.026;2023-01-19T06:58:25;-3.00;99.90
15288;DHT22;7745;48.708;9.026;2023-01-19T07:00:52;-3.00;99.90
15288;DHT22;7745;48.708;9.026;2023-01-19T07:03:20;-3.00;99.90
15288;DHT22;7745;48.708;9.026;2023-01-19T07:05:51;-2.90;99.90
15288;DHT22;7745;48.708;9.026;2023-01-19T07:08:19;-2.90;99.90
15288;DHT22;7745;48.708;9.026;2023-01-19T07:10:46;-2.90;99.90
15288;DHT22;7745;48.708;9.026;2023-01-19T07:13:13;-2.80;99.90
15288;DHT22;7745;48.708;9.026;2023-01-19T07:15:40;-2.80;99.90
15288;DHT22;7745;48.708;9.026;2023-01-19T07:18:06;-2.80;99.90
15288;DHT22;7745;48.708;9.026;2023-01-19T07:20:34;-2.80;99.90
15288;DHT22;7745;48.708;9.026;2023-01-19T07:23:03;-2.80;99.90
15288;DHT22;7745;48.708;9.026;2023-01-19T07:25:30;-2.80;99.90
15288;DHT22;7745;48.708;9.026;2023-01-19T07:27:57;-2.60;99.90
15288;DHT22;7745;48.708;9.026;2023-01-19T07:30:24;-2.90;99.90
15288;DHT22;7745;48.708;9.026;2023-01-19T07:32:54;-2.90;99.90
15288;DHT22;7745;48.708;9.026;2023-01-19T07:35:22;-2.90;99.90
15288;DHT22;7745;48.708;9.026;2023-01-19T07:37:49;-3.00;99.90
15288;DHT22;7745;48.708;9.026;2023-01-19T07:40:18;-3.00;99.90
15288;DHT22;7745;48.708;9.026;2023-01-19T07:42:45;-3.00;99.90
15288;DHT22;7745;48.708;9.026;2023-01-19T07:45:13;-3.00;99.90
15288;DHT22;7745;48.708;9.026;2023-01-19T07:47:42;-2.90;99.90
15288;DHT22;7745;48.708;9.026;2023-01-19T07:50:10;-2.90;99.90
15288;DHT22;7745;48.708;9.026;2023-01-19T07:52:37;-2.90;99.90
15288;DHT22;7745;48.708;9.026;2023-01-19T07:55:04;-2.80;99.90
15288;DHT22;7745;48.708;9.026;2023-01-19T07:57:33;-2.80;99.90
15288;DHT22;7745;48.708;9.026;2023-01-19T08:00:00;-2.70;99.90
15288;DHT22;7745;48.708;9.026;2023-01-19T08:02:28;-2.70;99.90
15288;DHT22;7745;48.708;9.026;2023-01-19T08:04:56;-2.70;99.90
15288;DHT22;7745;48.708;9.026;2023-01-19T08:07:23;-2.60;99.90
15288;DHT22;7745;48.708;9.026;2023-01-19T08:09:50;-2.10;99.90
15288;DHT22;7745;48.708;9.026;2023-01-19T08:12:16;-2.50;99.90
15288;DHT22;7745;48.708;9.026;2023-01-19T08:14:45;-2.40;99.90
15288;DHT22;7745;48.708;9.026;2023-01-19T08:17:12;-2.30;99.90
15288;DHT22;7745;48.708;9.026;2023-01-19T08:19:39;-2.30;99.90
15288;DHT22;7745;48.708;9.026;2023-01-19T08:22:06;-2.30;99.90
15288;DHT22;7745;48.708;9.026;2023-01-19T08:24:32;-2.30;99.90
15288;DHT22;7745;48.708;9.026;2023-01-19T08:27:01;-2.30;99.90
15288;DHT22;7745;48.708;9.026;2023-01-19T08:29:28;-2.30;99.90
15288;DHT22;7745;48.708;9.026;2023-01-19T08:31:58;-2.30;99.90
15288;DHT22;7745;48.708;9.026;2023-01-19T08:34:27;-2.30;99.90
15288;DHT22;7745;48.708;9.026;2023-01-19T08:36:55;-2.30;99.90
15288;DHT22;7745;48.708;9.026;2023-01-19T08:39:22;-2.30;99.90
15288;DHT22;7745;48.708;9.026;2023-01-19T08:41:49;-2.20;99.90
15288;DHT22;7745;48.708;9.026;2023-01-19T08:44:17;-2.10;99.90
15288;DHT22;7745;48.708;9.026;2023-01-19T08:46:43;-1.90;99.90
15288;DHT22;7745;48.708;9.026;2023-01-19T08:49:12;-1.80;99.90
15288;DHT22;7745;48.708;9.026;2023-01-19T08:51:38;-1.70;99.90
15288;DHT22;7745;48.708;9.026;2023-01-19T08:54:05;-1.70;99.90
15288;DHT22;7745;48.708;9.026;2023-01-19T08:56:32;-1.80;99.90
15288;DHT22;7745;48.708;9.026;2023-01-19T08:58:59;-1.50;99.90
15288;DHT22;7745;48.708;9.026;2023-01-19T09:01:26;-1.50;99.90
15288;DHT22;7745;48.708;9.026;2023-01-19T09:03:52;-1.50;99.90
15288;DHT22;7745;48.708;9.026;2023-01-19T09:06:21;-1.50;99.90
15288;DHT22;7745;48.708;9.026;2023-01-19T09:08:49;-1.40;99.90
15288;DHT22;7745;48.708;9.026;2023-01-19T09:11:16;-1.20;99.90
15288;DHT22;7745;48.708;9.026;2023-01-19T09:13:44;-1.10;99.90
15288;DHT22;7745;48.708;9.026;2023-01-19T09:16:11;-1.10;99.90
15288;DHT22;7745;48.708;9.026;2023-01-19T09:18:39;-1.00;99.90
15288;DHT22;7745;48.708;9.026;2023-01-19T09:21:06;-0.90;99.90
15288;DHT22;7745;48.708;9.026;2023-01-19T09:23:35;-0.80;99.90
15288;DHT22;7745;48.708;9.026;2023-01-19T09:26:03;-0.60;99.90
15288;DHT22;7745;48.708;9.026;2023-01-19T09:28:30;-0.10;99.90
15288;DHT22;7745;48.708;9.026;2023-01-19T09:30:57;-0.40;99.90
15288;DHT22;7745;48.708;9.026;2023-01-19T09:33:25;-0.40;99.90
15288;DHT22;7745;48.708;9.026;2023-01-19T09:35:52;-0.40;99.90
15288;DHT22;7745;48.708;9.026;2023-01-19T09:38:19;-0.40;99.90
15288;DHT22;7745;48.708;9.026;2023-01-19T09:40:51;-0.40;99.90
15288;DHT22;7745;48.708;9.026;2023-01-19T09:43:34;-0.30;99.90
15288;DHT22;7745;48.708;9.026;2023-01-19T09:46:05;-0.30;99.90
15288;DHT22;7745;48.708;9.026;2023-01-19T09:48:42;-0.40;99.90
15288;DHT22;7745;48.708;9.026;2023-01-19T09:51:15;-0.30;99.90
15288;DHT22;7745;48.708;9.026;2023-01-19T09:53:57;-0.30;99.90
15288;DHT22;7745;48.708;9.026;2023-01-19T09:56:28;-0.20;99.90
15288;DHT22;7745;48.708;9.026;2023-01-19T09:58:57;-0.20;99.90
15288;DHT22;7745;48.708;9.026;2023-01-19T10:04:31;0.00;99.90
15288;DHT22;7745;48.708;9.026;2023-01-19T10:07:08;0.00;99.90
15288;DHT22;7745;48.708;9.026;2023-01-19T10:09:44;0.00;99.90
15288;DHT22;7745;48.708;9.026;2023-01-19T10:12:23;0.40;99.90
15288;DHT22;7745;48.708;9.026;2023-01-19T10:15:01;0.10;99.90
15288;DHT22;7745;48.708;9.026;2023-01-19T10:17:40;0.00;99.90
15288;DHT22;7745;48.708;9.026;2023-01-19T10:20:16;0.30;99.90
15288;DHT22;7745;48.708;9.026;2023-01-19T10:22:47;0.30;99.90
15288;DHT22;7745;48.708;9.026;2023-01-19T10:25:18;0.60;99.90
15288;DHT22;7745;48.708;9.026;2023-01-19T10:27:46;0.10;99.90
15288;DHT22;7745;48.708;9.026;2023-01-19T10:30:18;0.10;99.90
15288;DHT22;7745;48.708;9.026;2023-01-19T10:32:49;0.20;99.90
15288;DHT22;7745;48.708;9.026;2023-01-19T10:35:19;0.20;99.90
15288;DHT22;7745;48.708;9.026;2023-01-19T10:37:49;0.20;99.90
15288;DHT22;7745;48.708;9.026;2023-01-19T10:40:25;0.40;99.90
15288;DHT22;7745;48.708;9.026;2023-01-19T10:42:55;0.70;99.90
15288;DHT22;7745;48.708;9.026;2023-01-19T10:45:24;0.40;99.90
15288;DHT22;7745;48.708;9.026;2023-01-19T10:47:52;0.60;99.90
15288;DHT22;7745;48.708;9.026;2023-01-19T10:50:25;0.60;99.90
15288;DHT22;7745;48.708;9.026;2023-01-19T10:52:53;0.70;99.90
15288;DHT22;7745;48.708;9.026;2023-01-19T10:55:26;0.70;99.90
15288;DHT22;7745;48.708;9.026;2023-01-19T10:57:55;0.70;99.90
15288;DHT22;7745;48.708;9.026;2023-01-19T11:00:34;1.30;99.90
15288;DHT22;7745;48.708;9.026;2023-01-19T11:03:03;0.90;99.90
15288;DHT22;7745;48.708;9.026;2023-01-19T11:05:31;0.70;99.90
15288;DHT22;7745;48.708;9.026;2023-01-19T11:07:58;0.90;99.90
15288;DHT22;7745;48.708;9.026;2023-01-19T11:10:26;0.60;99.90
15288;DHT22;7745;48.708;9.026;2023-01-19T11:13:03;0.90;99.90
15288;DHT22;7745;48.708;9.026;2023-01-19T11:15:33;0.80;99.90
15288;DHT22;7745;48.708;9.026;2023-01-19T11:18:02;0.80;99.90
15288;DHT22;7745;48.708;9.026;2023-01-19T11:20:38;0.90;99.90
15288;DHT22;7745;48.708;9.026;2023-01-19T11:23:18;0.80;99.90
15288;DHT22;7745;48.708;9.026;2023-01-19T11:25:49;0.80;99.90
15288;DHT22;7745;48.708;9.026;2023-01-19T11:28:19;0.80;99.90
15288;DHT22;7745;48.708;9.026;2023-01-19T11:30:54;0.90;99.90
15288;DHT22;7745;48.708;9.026;2023-01-19T11:33:31;1.00;99.90
15288;DHT22;7745;48.708;9.026;2023-01-19T11:36:04;1.10;99.90
15288;DHT22;7745;48.708;9.026;2023-01-19T11:38:31;1.20;99.90
15288;DHT22;7745;48.708;9.026;2023-01-19T11:41:06;1.30;99.90
15288;DHT22;7745;48.708;9.026;2023-01-19T11:43:42;1.40;99.90
15288;DHT22;7745;48.708;9.026;2023-01-19T11:46:11;1.40;99.90
15288;DHT22;7745;48.708;9.026;2023-01-19T11:48:42;1.50;99.90
15288;DHT22;7745;48.708;9.026;2023-01-19T11:51:13;1.50;99.90
15288;DHT22;7745;48.708;9.026;2023-01-19T11:53:43;1.50;99.90
15288;DHT22;7745;48.708;9.026;2023-01-19T11:56:13;1.50;99.90
15288;DHT22;7745;48.708;9.026;2023-01-19T11:58:43;1.40;99.90
15288;DHT22;7745;48.708;9.026;2023-01-19T12:01:16;1.40;99.90
15288;DHT22;7745;48.708;9.026;2023-01-19T12:03:49;1.40;99.90
15288;DHT22;7745;48.708;9.026;2023-01-19T12:06:19;1.30;99.90
15288;DHT22;7745;48.708;9.026;2023-01-19T12:08:50;1.20;99.90
15288;DHT22;7745;48.708;9.026;2023-01-19T12:11:24;1.20;99.90
15288;DHT22;7745;48.708;9.026;2023-01-19T12:13:53;1.10;99.90
15288;DHT22;7745;48.708;9.026;2023-01-19T12:16:21;1.10;99.90
15288;DHT22;7745;48.708;9.026;2023-01-19T12:18:53;1.10;99.90
15288;DHT22;7745;48.708;9.026;2023-01-19T12:21:21;1.10;99.90
15288;DHT22;7745;48.708;9.026;2023-01-19T12:23:55;1.20;99.90
15288;DHT22;7745;48.708;9.026;2023-01-19T12:26:29;1.30;99.90
15288;DHT22;7745;48.708;9.026;2023-01-19T12:29:02;1.30;99.90
15288;DHT22;7745;48.708;9.026;2023-01-19T12:31:29;1.30;99.90
15288;DHT22;7745;48.708;9.026;2023-01-19T12:34:28;1.30;99.90
15288;DHT22;7745;48.708;9.026;2023-01-19T12:37:00;1.20;99.90
15288;DHT22;7745;48.708;9.026;2023-01-19T12:39:28;1.20;99.90
15288;DHT22;7745;48.708;9.026;2023-01-19T12:42:09;1.20;99.90
15288;DHT22;7745;48.708;9.026;2023-01-19T12:44:39;1.20;99.90
15288;DHT22;7745;48.708;9.026;2023-01-19T12:47:18;1.20;99.90
15288;DHT22;7745;48.708;9.026;2023-01-19T12:49:48;1.10;99.90
15288;DHT22;7745;48.708;9.026;2023-01-19T12:52:20;1.10;99.90
15288;DHT22;7745;48.708;9.026;2023-01-19T12:54:55;1.50;99.90
15288;DHT22;7745;48.708;9.026;2023-01-19T12:57:26;1.10;99.90
15288;DHT22;7745;48.708;9.026;2023-01-19T12:59:57;1.10;99.90
15288;DHT22;7745;48.708;9.026;2023-01-19T13:02:40;0.70;99.90
15288;DHT22;7745;48.708;9.026;2023-01-19T13:05:13;1.30;99.90
15288;DHT22;7745;48.708;9.026;2023-01-19T13:16:59;1.10;99.90
15288;DHT22;7745;48.708;9.026;2023-01-19T13:19:43;1.10;99.90
15288;DHT22;7745;48.708;9.026;2023-01-19T13:22:48;1.10;99.90
15288;DHT22;7745;48.708;9.026;2023-01-19T13:25:26;1.00;99.90
15288;DHT22;7745;48.708;9.026;2023-01-19T13:27:53;1.00;99.90
15288;DHT22;7745;48.708;9.026;2023-01-19T13:30:25;1.00;99.90
15288;DHT22;7745;48.708;9.026;2023-01-19T13:32:55;1.00;99.90
15288;DHT22;7745;48.708;9.026;2023-01-19T13:35:22;1.00;99.90
15288;DHT22;7745;48.708;9.026;2023-01-19T13:37:50;1.00;99.90
15288;DHT22;7745;48.708;9.026;2023-01-19T13:40:20;1.00;99.90
15288;DHT22;7745;48.708;9.026;2023-01-19T13:42:48;1.00;99.90
15288;DHT22;7745;48.708;9.026;2023-01-19T13:45:25;1.00;99.90
15288;DHT22;7745;48.708;9.026;2023-01-19T13:47:56;1.00;99.90
15288;DHT22;7745;48.708;9.026;2023-01-19T13:50:25;1.00;99.90
15288;DHT22;7745;48.708;9.026;2023-01-19T13:52:53;1.30;99.90
15288;DHT22;7745;48.708;9.026;2023-01-19T13:55:21;1.00;99.90
15288;DHT22;7745;48.708;9.026;2023-01-19T13:57:49;1.00;99.90
15288;DHT22;7745;48.708;9.026;2023-01-19T14:00:18;1.00;99.90
15288;DHT22;7745;48.708;9.026;2023-01-19T14:02:58;1.00;99.90
15288;DHT22;7745;48.708;9.026;2023-01-19T14:05:28;1.00;99.90
15288;DHT22;7745;48.708;9.026;2023-01-19T14:08:11;1.00;99.90
15288;DHT22;7745;48.708;9.026;2023-01-19T14:10:41;1.00;99.90
15288;DHT22;7745;48.708;9.026;2023-01-19T14:13:14;1.00;99.90
15288;DHT22;7745;48.708;9.026;2023-01-19T14:15:43;1.00;99.90
15288;DHT22;7745;48.708;9.026;2023-01-19T14:18:23;1.00;99.90
15288;DHT22;7745;48.708;9.026;2023-01-19T14:20:55;1.00;99.90
15288;DHT22;7745;48.708;9.026;2023-01-19T14:23:44;1.00;99.90
15288;DHT22;7745;48.708;9.026;2023-01-19T14:26:44;1.00;99.90
15288;DHT22;7745;48.708;9.026;2023-01-19T14:29:17;1.00;99.90
15288;DHT22;7745;48.708;9.026;2023-01-19T14:31:45;0.90;99.90
15288;DHT22;7745;48.708;9.026;2023-01-19T14:34:31;0.90;99.90
15288;DHT22;7745;48.708;9.026;2023-01-19T14:37:00;0.90;99.90
15288;DHT22;7745;48.708;9.026;2023-01-19T14:39:34;1.20;99.90
15288;DHT22;7745;48.708;9.026;2023-01-19T14:42:03;0.90;99.90
15288;DHT22;7745;48.708;9.026;2023-01-19T14:44:35;0.90;99.90
15288;DHT22;7745;48.708;9.026;2023-01-19T14:47:03;0.90;99.90
15288;DHT22;7745;48.708;9.026;2023-01-19T14:49:34;0.80;99.90
15288;DHT22;7745;48.708;9.026;2023-01-19T14:52:03;0.80;99.90
15288;DHT22;7745;48.708;9.026;2023-01-19T14:54:36;0.80;99.90
15288;DHT22;7745;48.708;9.026;2023-01-19T14:57:04;0.80;99.90
15288;DHT22;7745;48.708;9.026;2023-01-19T14:59:34;0.80;99.90
15288;DHT22;7745;48.708;9.026;2023-01-19T15:02:01;0.80;99.90
15288;DHT22;7745;48.708;9.026;2023-01-19T15:04:28;0.80;99.90
15288;DHT22;7745;48.708;9.026;2023-01-19T15:06:56;0.80;99.90
15288;DHT22;7745;48.708;9.026;2023-01-19T15:09:24;0.90;99.90
15288;DHT22;7745;48.708;9.026;2023-01-19T15:11:51;0.90;99.90
15288;DHT22;7745;48.708;9.026;2023-01-19T15:14:21;1.10;99.90
15288;DHT22;7745;48.708;9.026;2023-01-19T15:16:48;0.80;99.90
15288;DHT22;7745;48.708;9.026;2023-01-19T15:19:16;0.80;99.90
15288;DHT22;7745;48.708;9.026;2023-01-19T15:21:43;0.80;99.90
15288;DHT22;7745;48.708;9.026;2023-01-19T15:24:13;0.80;99.90
15288;DHT22;7745;48.708;9.026;2023-01-19T15:26:41;0.80;99.90
15288;DHT22;7745;48.708;9.026;2023-01-19T15:29:17;0.80;99.90
15288;DHT22;7745;48.708;9.026;2023-01-19T15:31:45;0.80;99.90
15288;DHT22;7745;48.708;9.026;2023-01-19T15:34:12;0.80;99.90
15288;DHT22;7745;48.708;9.026;2023-01-19T15:36:39;0.80;99.90
15288;DHT22;7745;48.708;9.026;2023-01-19T15:39:07;0.80;99.90
15288;DHT22;7745;48.708;9.026;2023-01-19T15:41:37;0.70;99.90
15288;DHT22;7745;48.708;9.026;2023-01-19T15:44:05;0.80;99.90
15288;DHT22;7745;48.708;9.026;2023-01-19T15:46:33;0.80;99.90
15288;DHT22;7745;48.708;9.026;2023-01-19T15:49:00;0.70;99.90
15288;DHT22;7745;48.708;9.026;2023-01-19T15:51:26;0.70;99.90
15288;DHT22;7745;48.708;9.026;2023-01-19T15:53:54;0.70;99.90
15288;DHT22;7745;48.708;9.026;2023-01-19T15:56:22;0.70;99.90
15288;DHT22;7745;48.708;9.026;2023-01-19T15:58:51;0.70;99.90
15288;DHT22;7745;48.708;9.026;2023-01-19T16:01:19;0.70;99.90
15288;DHT22;7745;48.708;9.026;2023-01-19T16:03:46;0.70;99.90
15288;DHT22;7745;48.708;9.026;2023-01-19T16:06:14;0.70;99.90
15288;DHT22;7745;48.708;9.026;2023-01-19T16:08:42;0.70;99.90
15288;DHT22;7745;48.708;9.026;2023-01-19T16:11:11;0.70;99.90
15288;DHT22;7745;48.708;9.026;2023-01-19T16:13:39;0.70;99.90
15288;DHT22;7745;48.708;9.026;2023-01-19T16:16:12;0.70;99.90
15288;DHT22;7745;48.708;9.026;2023-01-19T16:18:39;0.70;99.90
15288;DHT22;7745;48.708;9.026;2023-01-19T16:21:10;0.70;99.90
15288;DHT22;7745;48.708;9.026;2023-01-19T16:23:37;0.60;99.90
15288;DHT22;7745;48.708;9.026;2023-01-19T16:26:07;0.60;99.90